Terminal Aerodrome Forecast
Issued by NWS

Home | Current Version | Previous Version | Text Only | Print | Product List | Glossary On
Versions: 1 2 3 4 5 6 7 8 9 10 11 12 13 14 15
000
FTUS43 KDVN 291720
TAFBRL
TAF
KBRL 291720Z 2918/3018 01012G19KT P6SM FEW035
     FM300000 01007KT P6SM SCT020 BKN035
     FM301200 01009KT 6SM BR SCT012 OVC019
     FM301500 01009KT 6SM BR VCSH SCT009 OVC013=

USA.gov is the U.S. government's official web portal to all federal, state and local government web resources and services.